Time;durP1;ratioP1;P1;durP2;ratioP2;P2;SDS_P1;SDS_P2;PMS_P1;PMS_P2;Temp;Humidity;BMP_temperature;BMP_pressure;BME280_temperature;BME280_humidity;BME280_pressure;Samples;Min_cycle;Max_cycle;Signal;HPM_P1;HPM_P2
2022/12/02 00:01:22;;;;;;;57.13;24.13;;;;;;;3.70;100.00;99766.06;5067765;28;20223;-79
2022/12/02 00:03:53;;;;;;;49.53;22.80;;;;;;;3.65;100.00;99760.94;5066580;28;20203;-80
2022/12/02 00:06:26;;;;;;;51.43;22.93;;;;;;;3.55;100.00;99755.97;5068516;28;20220;-79
2022/12/02 00:08:56;;;;;;;50.97;23.70;;;;;;;3.59;100.00;99753.25;5082035;28;20337;-79
2022/12/02 00:11:28;;;;;;;53.33;23.13;;;;;;;3.71;100.00;99752.06;5116443;28;20252;-79
2022/12/02 00:13:59;;;;;;;52.67;24.30;;;;;;;3.72;100.00;99751.16;5115517;28;20207;-79
2022/12/02 00:16:27;;;;;;;46.83;23.03;;;;;;;3.61;100.00;99754.06;5117464;28;20187;-79
2022/12/02 00:18:59;;;;;;;51.00;22.77;;;;;;;3.66;100.00;99749.56;5114484;27;20207;-79
2022/12/02 00:21:27;;;;;;;49.00;23.53;;;;;;;3.63;100.00;99752.25;5117204;27;20195;-79
2022/12/02 00:23:56;;;;;;;48.90;22.33;;;;;;;3.63;100.00;99748.78;5114627;27;20195;-79
2022/12/02 00:26:24;;;;;;;47.93;24.00;;;;;;;3.54;100.00;99739.41;5115213;28;20326;-79
2022/12/02 00:28:54;;;;;;;52.77;24.27;;;;;;;3.63;100.00;99741.78;5118492;27;20198;-79
2022/12/02 00:31:22;;;;;;;52.93;24.30;;;;;;;3.58;100.00;99738.44;5117526;27;20214;-79
2022/12/02 00:33:52;;;;;;;54.00;24.60;;;;;;;3.67;100.00;99737.34;5116431;28;20225;-80
2022/12/02 00:36:21;;;;;;;50.13;22.93;;;;;;;3.61;100.00;99735.72;5114928;28;20203;-79
2022/12/02 00:38:50;;;;;;;47.83;21.97;;;;;;;3.70;100.00;99730.25;5080614;28;20191;-79
2022/12/02 00:41:18;;;;;;;48.23;23.17;;;;;;;3.73;100.00;99739.78;5116867;27;20187;-80
2022/12/02 00:46:33;;;;;;;47.40;22.67;;;;;;;3.83;100.00;99735.16;5116362;28;20214;-80
2022/12/02 00:49:04;;;;;;;44.10;21.97;;;;;;;3.75;100.00;99737.97;5080885;28;20203;-80
2022/12/02 00:51:39;;;;;;;44.93;21.97;;;;;;;3.70;100.00;99730.25;5113905;28;20198;-80
2022/12/02 00:54:07;;;;;;;48.93;21.60;;;;;;;3.73;100.00;99722.31;5117034;28;20311;-80
2022/12/02 00:56:36;;;;;;;44.70;22.03;;;;;;;3.55;100.00;99720.16;5117179;27;20293;-80
2022/12/02 00:59:05;;;;;;;47.57;21.80;;;;;;;3.55;100.00;99716.69;5115763;28;20209;-79
2022/12/02 01:01:35;;;;;;;48.30;22.77;;;;;;;3.56;100.00;99721.88;5113636;28;20199;-79
2022/12/02 01:04:04;;;;;;;45.07;22.57;;;;;;;3.55;100.00;99720.16;5116033;28;20187;-80
2022/12/02 01:06:33;;;;;;;45.83;21.97;;;;;;;3.59;100.00;99715.72;5115472;28;20257;-80
2022/12/02 01:09:05;;;;;;;45.83;22.70;;;;;;;3.51;100.00;99718.53;5115589;27;20233;-79
2022/12/02 01:11:33;;;;;;;50.03;24.40;;;;;;;3.55;100.00;99719.31;5114576;28;20187;-79
2022/12/02 01:14:01;;;;;;;48.83;22.40;;;;;;;3.51;100.00;99713.31;5112633;28;20207;-80
2022/12/02 01:16:31;;;;;;;47.00;22.43;;;;;;;3.45;100.00;99713.47;5115591;28;20531;-80
2022/12/02 01:19:00;;;;;;;47.57;21.20;;;;;;;3.56;100.00;99713.16;5115099;27;20343;-80
2022/12/02 01:21:28;;;;;;;46.07;22.90;;;;;;;3.58;100.00;99714.00;5109823;28;20598;-80
2022/12/02 01:23:56;;;;;;;46.60;22.50;;;;;;;3.48;100.00;99712.53;5117214;27;20191;-80
2022/12/02 01:26:27;;;;;;;44.93;22.03;;;;;;;3.51;100.00;99715.06;5114159;27;20207;-79
2022/12/02 01:28:56;;;;;;;41.63;20.43;;;;;;;3.54;100.00;99717.59;5113387;28;20252;-80
2022/12/02 01:31:24;;;;;;;48.47;22.90;;;;;;;3.50;100.00;99719.44;5110455;28;20199;-80
2022/12/02 01:33:53;;;;;;;47.10;22.80;;;;;;;3.38;100.00;99715.41;5112024;28;20223;-80
2022/12/02 01:36:21;;;;;;;47.77;22.10;;;;;;;3.47;100.00;99716.88;5111007;28;20203;-80
2022/12/02 01:38:50;;;;;;;46.60;23.37;;;;;;;3.55;100.00;99708.84;5115179;28;20194;-80
2022/12/02 01:41:18;;;;;;;47.70;22.53;;;;;;;3.62;100.00;99713.03;5079118;28;20195;-79
2022/12/02 01:43:49;;;;;;;48.27;22.87;;;;;;;3.46;100.00;99717.78;5115240;28;20187;-80
2022/12/02 01:46:18;;;;;;;48.43;22.20;;;;;;;3.55;100.00;99711.44;5114949;28;20187;-80
2022/12/02 01:48:46;;;;;;;43.47;20.97;;;;;;;3.43;100.00;99718.75;5112734;28;20191;-80
2022/12/02 01:51:15;;;;;;;51.40;23.03;;;;;;;3.37;100.00;99716.28;5116765;27;20244;-80
2022/12/02 01:53:44;;;;;;;50.63;21.60;;;;;;;3.49;100.00;99712.50;5111119;28;20771;-80
2022/12/02 01:56:12;;;;;;;49.10;22.23;;;;;;;3.54;100.00;99717.59;5108518;28;20223;-80
2022/12/02 01:58:43;;;;;;;47.70;23.03;;;;;;;3.56;100.00;99714.03;5114910;28;20198;-80
2022/12/02 02:01:28;;;;;;;41.83;21.23;;;;;;;3.62;100.00;99713.03;5111749;28;20618;-80
2022/12/02 02:03:57;;;;;;;46.23;22.37;;;;;;;3.59;100.00;99718.34;5114932;28;20203;-80
2022/12/02 02:06:28;;;;;;;48.43;22.10;;;;;;;3.55;100.00;99708.84;5109003;28;20363;-80
2022/12/02 02:08:58;;;;;;;47.43;21.47;;;;;;;3.55;100.00;99714.06;5114759;28;20183;-79
2022/12/02 02:11:26;;;;;;;45.80;21.73;;;;;;;3.55;100.00;99708.84;5111184;28;20187;-79
2022/12/02 02:13:56;;;;;;;46.77;23.43;;;;;;;3.42;100.00;99709.16;5114355;28;20195;-80
2022/12/02 02:16:26;;;;;;;46.20;22.60;;;;;;;3.51;100.00;99709.84;5109907;28;20241;-80
2022/12/02 02:18:55;;;;;;;48.10;21.87;;;;;;;3.49;100.00;99703.78;5112560;28;20183;-79
2022/12/02 02:21:28;;;;;;;46.20;22.27;;;;;;;3.57;100.00;99702.69;5115626;28;20194;-80
2022/12/02 02:23:58;;;;;;;52.70;23.40;;;;;;;3.59;100.00;99693.03;5121905;28;20197;-80
2022/12/02 02:26:26;;;;;;;50.97;23.40;;;;;;;3.50;100.00;99687.16;5110488;28;20267;-80
2022/12/02 02:28:55;;;;;;;48.23;21.80;;;;;;;3.49;100.00;99693.31;5114303;28;20304;-80
2022/12/02 02:31:23;;;;;;;48.57;22.23;;;;;;;3.48;100.00;99694.22;5116211;27;20255;-80
2022/12/02 02:33:51;;;;;;;46.77;21.97;;;;;;;3.50;100.00;99692.41;5111770;28;20262;-79
2022/12/02 02:36:20;;;;;;;51.50;22.67;;;;;;;3.39;100.00;99697.94;5107661;28;20215;-80
2022/12/02 02:38:49;;;;;;;45.20;21.27;;;;;;;3.47;100.00;99692.47;5104250;28;20199;-80
2022/12/02 02:41:21;;;;;;;46.83;22.70;;;;;;;3.39;100.00;99690.94;5112818;27;20206;-80
2022/12/02 02:43:50;;;;;;;48.13;22.67;;;;;;;3.44;100.00;99696.03;5113912;28;20187;-80
2022/12/02 02:46:18;;;;;;;46.97;23.37;;;;;;;3.35;100.00;99691.91;5110915;28;20190;-80
2022/12/02 02:48:48;;;;;;;51.37;23.97;;;;;;;3.35;100.00;99691.91;5114110;28;20191;-79
2022/12/02 02:51:17;;;;;;;47.73;22.67;;;;;;;3.37;100.00;99692.69;5113829;28;20247;-80
2022/12/02 02:53:46;;;;;;;49.40;23.40;;;;;;;3.34;100.00;99684.94;5111186;28;20199;-80
2022/12/02 02:56:14;;;;;;;45.00;22.83;;;;;;;3.41;100.00;99676.03;5073721;28;20250;-80
2022/12/02 02:58:44;;;;;;;49.97;22.20;;;;;;;3.41;100.00;99688.28;5107824;28;20199;-80
2022/12/02 03:01:16;;;;;;;46.13;21.77;;;;;;;3.45;100.00;99688.13;5107810;28;20199;-80
2022/12/02 03:03:49;;;;;;;47.60;22.00;;;;;;;3.37;100.00;99681.38;5088415;28;20192;-80
2022/12/02 03:06:18;;;;;;;50.50;23.73;;;;;;;3.40;100.00;99683.94;5087965;28;20268;-80
2022/12/02 03:08:48;;;;;;;50.50;23.50;;;;;;;3.30;100.00;99680.69;5088159;28;20253;-80
2022/12/02 03:11:17;;;;;;;47.13;22.93;;;;;;;3.25;100.00;99681.69;5086352;28;20394;-80
2022/12/02 03:13:51;;;;;;;47.53;22.37;;;;;;;3.22;100.00;99682.66;5085365;28;20199;-80
2022/12/02 03:16:22;;;;;;;47.53;21.83;;;;;;;3.28;100.00;99676.38;5085080;28;20243;-80
2022/12/02 03:18:53;;;;;;;49.33;22.47;;;;;;;3.22;100.00;99673.94;5091027;28;20205;-79
2022/12/02 03:21:23;;;;;;;43.50;22.30;;;;;;;3.20;100.00;99673.13;5094162;28;20191;-80
2022/12/02 03:23:57;;;;;;;49.00;23.17;;;;;;;3.20;100.00;99670.50;5113413;28;20244;-80
2022/12/02 03:26:28;;;;;;;48.63;23.27;;;;;;;3.25;100.00;99663.38;5111614;28;20217;-80
2022/12/02 03:28:59;;;;;;;46.97;22.60;;;;;;;3.24;100.00;99669.53;5113075;28;20734;-79
2022/12/02 03:31:28;;;;;;;48.60;22.47;;;;;;;3.22;100.00;99663.47;5113007;27;20203;-80
2022/12/02 03:33:57;;;;;;;46.07;22.50;;;;;;;3.17;100.00;99667.03;5107451;28;20222;-80
2022/12/02 03:36:27;;;;;;;46.87;21.93;;;;;;;3.20;100.00;99673.97;5110996;28;20373;-80
2022/12/02 03:38:56;;;;;;;47.73;21.97;;;;;;;3.08;100.00;99671.66;5108064;28;20195;-80
2022/12/02 03:41:26;;;;;;;47.37;22.13;;;;;;;3.12;100.00;99661.09;5108181;28;20642;-80
2022/12/02 03:43:57;;;;;;;47.07;22.47;;;;;;;3.15;100.00;99658.38;5112669;28;20276;-80
2022/12/02 03:46:28;;;;;;;48.90;22.30;;;;;;;3.16;100.00;99661.84;5112958;28;20228;-80
2022/12/02 03:48:59;;;;;;;46.17;21.83;;;;;;;3.21;100.00;99657.38;5071069;28;20203;-80
2022/12/02 03:51:29;;;;;;;48.73;20.93;;;;;;;3.16;100.00;99657.47;5066628;28;20304;-80
2022/12/02 03:54:01;;;;;;;45.23;21.80;;;;;;;3.28;100.00;99656.31;5070305;28;20188;-79
2022/12/02 03:56:30;;;;;;;46.50;21.97;;;;;;;3.17;100.00;99659.19;5066473;28;20216;-80
2022/12/02 03:59:01;;;;;;;43.97;22.43;;;;;;;3.26;100.00;99654.63;5062253;28;20242;-80
2022/12/02 04:01:30;;;;;;;47.20;22.20;;;;;;;3.15;100.00;99645.28;5065019;28;20581;-79
2022/12/02 04:03:58;;;;;;;47.13;20.63;;;;;;;3.29;100.00;99644.94;5065718;28;20220;-80
2022/12/02 04:06:27;;;;;;;43.73;21.90;;;;;;;3.16;100.00;99643.53;5068013;28;20281;-80
2022/12/02 04:08:56;;;;;;;47.57;22.47;;;;;;;3.08;100.00;99635.03;5062140;28;20331;-79
2022/12/02 04:11:25;;;;;;;44.90;21.00;;;;;;;3.13;100.00;99636.63;5064223;28;20208;-80
2022/12/02 04:13:53;;;;;;;45.00;22.17;;;;;;;3.13;100.00;99627.94;5089600;28;20259;-80
2022/12/02 04:16:24;;;;;;;42.37;20.67;;;;;;;3.10;100.00;99628.88;5110766;28;20207;-79
2022/12/02 04:18:53;;;;;;;42.60;20.73;;;;;;;3.01;100.00;99630.88;5110090;28;20183;-79
2022/12/02 04:21:23;;;;;;;41.67;21.87;;;;;;;3.07;100.00;99628.94;5112620;28;20191;-80
2022/12/02 04:23:52;;;;;;;38.80;19.70;;;;;;;3.21;100.00;99620.72;5112347;28;20252;-79
2022/12/02 04:26:21;;;;;;;44.53;21.80;;;;;;;3.13;100.00;99620.06;5110469;28;20195;-80
2022/12/02 04:28:50;;;;;;;42.67;20.47;;;;;;;3.09;100.00;99610.59;5112952;28;20642;-80
2022/12/02 04:31:18;;;;;;;43.50;21.57;;;;;;;3.07;100.00;99615.00;5110291;28;20187;-79
2022/12/02 04:33:48;;;;;;;42.33;20.60;;;;;;;3.08;100.00;99617.56;5112670;28;20629;-79
2022/12/02 04:36:16;;;;;;;38.80;20.30;;;;;;;3.02;100.00;99609.91;5117907;28;20213;-80
2022/12/02 04:38:45;;;;;;;41.57;20.97;;;;;;;3.04;100.00;99607.22;5118816;28;20205;-80
2022/12/02 04:41:14;;;;;;;39.03;19.67;;;;;;;3.07;100.00;99607.13;5109606;28;20195;-80
2022/12/02 04:43:42;;;;;;;37.83;20.00;;;;;;;3.03;100.00;99614.22;5110465;28;20195;-79
2022/12/02 04:46:11;;;;;;;34.93;19.97;;;;;;;3.04;100.00;99609.84;5110550;28;20195;-80
2022/12/02 04:48:40;;;;;;;36.73;19.23;;;;;;;2.93;100.00;99604.91;5109593;28;20203;-79
2022/12/02 04:51:09;;;;;;;34.17;19.13;;;;;;;2.91;100.00;99603.22;5109634;28;20335;-79
2022/12/02 04:53:37;;;;;;;36.33;19.47;;;;;;;2.94;100.00;99605.75;5106300;28;20191;-80
2022/12/02 04:56:06;;;;;;;37.60;19.70;;;;;;;2.97;100.00;99610.91;5113361;28;20696;-79
2022/12/02 04:58:35;;;;;;;37.27;19.93;;;;;;;2.93;100.00;99599.66;5114545;28;20245;-80
2022/12/02 05:01:05;;;;;;;36.57;18.87;;;;;;;2.98;100.00;99608.25;5116910;27;20594;-80
2022/12/02 05:03:33;;;;;;;34.17;18.50;;;;;;;2.91;100.00;99613.69;5115809;28;20664;-79
2022/12/02 05:06:02;;;;;;;35.80;18.40;;;;;;;2.95;100.00;99605.72;5112722;28;20218;-79
2022/12/02 05:08:33;;;;;;;33.93;17.90;;;;;;;2.92;100.00;99603.19;5113081;28;20606;-80
2022/12/02 05:11:03;;;;;;;32.77;18.17;;;;;;;3.01;100.00;99602.09;5049249;28;20204;-80
2022/12/02 05:13:31;;;;;;;32.53;17.40;;;;;;;3.02;100.00;99598.56;5052926;28;20201;-80
2022/12/02 05:16:00;;;;;;;33.67;18.00;;;;;;;2.91;100.00;99598.00;5044972;28;20197;-80
2022/12/02 05:18:30;;;;;;;31.80;17.17;;;;;;;2.94;100.00;99605.75;5052483;28;20319;-80
2022/12/02 05:20:59;;;;;;;30.30;17.20;;;;;;;3.02;100.00;99596.81;5050514;28;20223;-80
2022/12/02 05:23:28;;;;;;;32.47;17.53;;;;;;;2.91;100.00;99598.84;5045546;28;20668;-80
2022/12/02 05:26:00;;;;;;;32.13;17.50;;;;;;;3.00;100.00;99596.00;5043587;28;20200;-80
2022/12/02 05:28:28;;;;;;;32.30;16.70;;;;;;;3.08;100.00;99595.75;5050256;28;20201;-79
2022/12/02 05:30:57;;;;;;;32.10;16.63;;;;;;;2.94;100.00;99598.75;5011026;28;20202;-80
2022/12/02 05:33:25;;;;;;;30.47;16.77;;;;;;;3.14;100.00;99603.47;5011569;28;20202;-80
2022/12/02 05:35:54;;;;;;;29.83;16.77;;;;;;;3.13;100.00;99602.63;5056689;28;20195;-80
2022/12/02 05:38:23;;;;;;;28.37;16.53;;;;;;;2.98;100.00;99589.06;5092737;28;20249;-80
2022/12/02 05:40:54;;;;;;;28.80;16.03;;;;;;;3.07;100.00;99594.91;5083686;28;20256;-80
2022/12/02 05:43:26;;;;;;;29.33;16.83;;;;;;;2.89;100.00;99595.38;5087442;28;20237;-79
2022/12/02 05:45:59;;;;;;;29.57;16.40;;;;;;;2.97;100.00;99592.59;5092457;28;20191;-79
2022/12/02 05:48:35;;;;;;;32.13;17.80;;;;;;;2.94;100.00;99603.13;5094015;28;20191;-79
2022/12/02 05:51:10;;;;;;;26.80;15.50;;;;;;;2.91;100.00;99604.09;5115097;28;20226;-80
2022/12/02 05:53:39;;;;;;;29.37;16.60;;;;;;;2.96;100.00;99612.66;5112218;28;20194;-80
2022/12/02 05:56:12;;;;;;;28.47;16.63;;;;;;;2.84;100.00;99607.75;5111440;27;20207;-79
2022/12/02 05:58:42;;;;;;;28.17;16.57;;;;;;;2.66;100.00;99609.06;5116398;27;20183;-80
2022/12/02 06:01:21;;;;;;;28.83;16.57;;;;;;;2.57;100.00;99604.06;5109946;28;20203;-80
2022/12/02 06:03:51;;;;;;;27.93;15.83;;;;;;;2.60;100.00;99603.97;5112281;28;20209;-79
2022/12/02 06:06:23;;;;;;;30.73;16.63;;;;;;;2.72;100.00;99600.22;5112844;27;20257;-79
2022/12/02 06:08:54;;;;;;;31.23;16.83;;;;;;;2.80;100.00;99606.13;5112302;28;20224;-79
2022/12/02 06:11:29;;;;;;;32.67;16.67;;;;;;;2.82;100.00;99607.78;5113422;27;20195;-79
2022/12/02 06:14:01;;;;;;;29.87;15.87;;;;;;;2.76;100.00;99601.84;5111835;28;20222;-79
2022/12/02 06:16:31;;;;;;;29.37;16.07;;;;;;;2.94;100.00;99605.75;5112655;28;20191;-79
2022/12/02 06:19:00;;;;;;;30.87;16.83;;;;;;;2.83;100.00;99609.50;5115977;27;20188;-79
2022/12/02 06:21:29;;;;;;;28.00;15.97;;;;;;;2.73;100.00;99609.78;5110748;28;20203;-79
2022/12/02 06:23:58;;;;;;;29.93;15.50;;;;;;;2.75;100.00;99611.44;5029640;28;20198;-79
2022/12/02 06:26:27;;;;;;;27.23;15.17;;;;;;;2.83;100.00;99606.03;5026242;28;20198;-80
2022/12/02 06:29:02;;;;;;;30.33;16.53;;;;;;;2.80;100.00;99606.97;4996677;28;20194;-79
2022/12/02 06:31:36;;;;;;;30.73;16.23;;;;;;;2.74;100.00;99617.59;5027337;28;20205;-79
2022/12/02 06:34:21;;;;;;;26.60;15.07;;;;;;;2.68;100.00;99612.50;5028630;28;20196;-79
2022/12/02 06:36:49;;;;;;;26.47;15.20;;;;;;;2.76;100.00;99620.16;5031125;28;20214;-79
2022/12/02 06:39:21;;;;;;;22.77;13.97;;;;;;;2.92;100.00;99612.78;5031028;28;20202;-79
2022/12/02 06:41:53;;;;;;;26.50;14.27;;;;;;;2.92;100.00;99616.25;5028515;28;20197;-79
2022/12/02 06:47:52;;;;;;;27.27;14.30;;;;;;;2.67;100.00;99616.00;5030966;28;20197;-79
2022/12/02 06:50:27;;;;;;;24.20;15.03;;;;;;;2.53;100.00;99611.13;5093812;28;20194;-79
2022/12/02 06:53:02;;;;;;;23.77;14.10;;;;;;;2.48;100.00;99623.44;5112575;28;20199;-79
2022/12/02 06:55:34;;;;;;;20.77;13.17;;;;;;;2.50;100.00;99620.78;5112460;28;20221;-79
2022/12/02 06:58:23;;;;;;;21.73;12.50;;;;;;;2.38;100.00;99616.69;5109831;28;20368;-79
2022/12/02 07:00:53;;;;;;;21.20;12.97;;;;;;;2.56;100.00;99618.88;5109719;28;20195;-78
2022/12/02 07:03:30;;;;;;;28.30;16.80;;;;;;;2.26;100.00;99614.38;5113348;28;20236;-78
2022/12/02 07:06:11;;;;;;;31.77;18.33;;;;;;;2.20;100.00;99620.59;5110024;28;20230;-79
2022/12/02 07:08:44;;;;;;;38.27;23.03;;;;;;;2.07;100.00;99613.94;5110996;28;20195;-79
2022/12/02 07:11:21;;;;;;;31.20;18.83;;;;;;;2.29;100.00;99609.94;5109406;28;20194;-79
2022/12/02 07:13:49;;;;;;;26.07;15.70;;;;;;;2.16;100.00;99605.91;5115737;27;20199;-79
2022/12/02 07:16:44;;;;;;;24.03;14.67;;;;;;;2.27;100.00;99605.66;5114615;27;20199;-79
2022/12/02 07:19:16;;;;;;;23.37;15.23;;;;;;;2.32;100.00;99603.81;5112398;28;20197;-79
2022/12/02 07:21:47;;;;;;;54.70;32.17;;;;;;;2.25;100.00;99600.47;5112712;28;20191;-78
2022/12/02 07:24:22;;;;;;;30.53;18.93;;;;;;;2.24;100.00;99608.34;5112977;28;20191;-79
2022/12/02 07:26:52;;;;;;;27.50;17.17;;;;;;;2.28;100.00;99599.53;5112023;28;20236;-79
2022/12/02 07:29:28;;;;;;;24.67;15.60;;;;;;;2.44;100.00;99606.13;5113097;28;20184;-79
2022/12/02 07:31:58;;;;;;;24.63;15.63;;;;;;;2.42;100.00;99604.44;5112978;28;20194;-79
2022/12/02 07:34:27;;;;;;;26.53;17.53;;;;;;;2.46;100.00;99601.69;5112899;28;20195;-79
2022/12/02 07:37:03;;;;;;;32.13;21.30;;;;;;;2.34;100.00;99601.16;5112306;28;20201;-79
2022/12/02 07:39:33;;;;;;;26.60;17.40;;;;;;;2.19;100.00;99602.34;5112759;28;20232;-79
2022/12/02 07:42:04;;;;;;;23.23;16.00;;;;;;;2.28;100.00;99602.13;5111300;28;20240;-79
2022/12/02 07:44:32;;;;;;;25.20;16.03;;;;;;;2.23;100.00;99602.25;5112985;28;20194;-79
2022/12/02 07:47:02;;;;;;;24.10;15.23;;;;;;;2.19;100.00;99604.97;5112698;28;20248;-78
2022/12/02 07:49:31;;;;;;;26.43;17.87;;;;;;;2.17;100.00;99606.75;5108054;28;20194;-78
2022/12/02 07:51:59;;;;;;;33.30;23.03;;;;;;;2.19;100.00;99608.44;5070062;28;20204;-79
2022/12/02 07:54:27;;;;;;;23.57;16.13;;;;;;;2.01;100.00;99603.63;5070186;28;20200;-79
2022/12/02 07:56:55;;;;;;;25.60;17.73;;;;;;;2.10;100.00;99602.56;5065554;28;20199;-79
2022/12/02 07:59:24;;;;;;;30.23;19.57;;;;;;;2.16;100.00;99603.28;5065431;28;20253;-79
2022/12/02 08:01:52;;;;;;;23.97;15.87;;;;;;;1.96;100.00;99597.66;5061046;28;20204;-79
2022/12/02 08:04:24;;;;;;;25.97;16.43;;;;;;;2.17;100.00;99602.38;5067418;28;20280;-79
2022/12/02 08:06:52;;;;;;;26.93;17.67;;;;;;;2.24;100.00;99601.34;5065566;28;20252;-79
2022/12/02 08:09:21;;;;;;;32.60;21.57;;;;;;;2.10;100.00;99597.31;5071119;28;20194;-80
2022/12/02 08:11:50;;;;;;;25.60;16.80;;;;;;;2.27;100.00;99606.50;5111599;28;20313;-79
2022/12/02 08:14:18;;;;;;;23.80;14.90;;;;;;;2.14;100.00;99594.63;5107682;28;20211;-79
2022/12/02 08:16:46;;;;;;;23.00;15.20;;;;;;;2.14;100.00;99602.47;5113070;28;20252;-80
2022/12/02 08:19:15;;;;;;;24.83;16.27;;;;;;;2.21;100.00;99593.56;5110828;28;20247;-80
2022/12/02 08:21:46;;;;;;;21.37;13.63;;;;;;;2.09;100.00;99591.25;5109664;28;20195;-79
2022/12/02 08:24:14;;;;;;;21.13;14.07;;;;;;;1.96;100.00;99593.28;5107999;28;20191;-80
2022/12/02 08:26:43;;;;;;;21.47;13.77;;;;;;;2.06;100.00;99593.06;5109563;28;20203;-80
2022/12/02 08:29:12;;;;;;;20.87;13.53;;;;;;;1.98;100.00;99604.53;5113169;28;20194;-79
2022/12/02 08:31:43;;;;;;;23.20;15.47;;;;;;;2.05;100.00;99593.97;5090258;28;20206;-79
2022/12/02 08:34:11;;;;;;;24.13;15.20;;;;;;;1.95;100.00;99599.41;5094097;28;20225;-80
2022/12/02 08:36:39;;;;;;;23.87;14.67;;;;;;;2.05;100.00;99592.22;5088535;28;20268;-79
2022/12/02 08:39:11;;;;;;;23.70;15.83;;;;;;;1.97;100.00;99600.22;5093956;28;20219;-79
2022/12/02 08:41:43;;;;;;;22.63;13.87;;;;;;;1.91;100.00;99599.47;5092328;28;20191;-79
2022/12/02 08:44:11;;;;;;;24.73;15.37;;;;;;;2.08;100.00;99591.28;5089642;28;20207;-79
2022/12/02 08:46:40;;;;;;;22.80;14.80;;;;;;;1.99;100.00;99605.41;5059700;28;20198;-79
2022/12/02 08:49:08;;;;;;;23.07;14.70;;;;;;;2.00;100.00;99589.69;5090233;28;20208;-79
2022/12/02 08:51:37;;;;;;;22.67;14.83;;;;;;;2.06;100.00;99593.06;5089803;28;20209;-79
2022/12/02 08:54:05;;;;;;;22.10;14.17;;;;;;;2.00;100.00;99588.84;5086816;28;20207;-80
2022/12/02 08:56:38;;;;;;;23.93;13.90;;;;;;;2.11;100.00;99599.91;5099092;28;20225;-79
2022/12/02 08:59:06;;;;;;;23.83;15.27;;;;;;;1.93;100.00;99592.47;5115584;27;20249;-79
2022/12/02 09:01:35;;;;;;;43.67;28.90;;;;;;;2.04;100.00;99592.25;5114739;28;20274;-79
2022/12/02 09:04:04;;;;;;;25.27;17.03;;;;;;;1.94;100.00;99599.44;5075757;28;20191;-79
2022/12/02 09:06:34;;;;;;;26.40;17.93;;;;;;;2.00;100.00;99601.91;5115890;28;20273;-79
2022/12/02 09:09:04;;;;;;;26.10;17.07;;;;;;;1.94;100.00;99604.66;5115810;28;20220;-79
2022/12/02 09:11:33;;;;;;;25.73;16.50;;;;;;;2.00;100.00;99601.91;5112763;27;20202;-79
2022/12/02 09:14:03;;;;;;;22.53;14.37;;;;;;;2.00;100.00;99607.13;5115750;28;20209;-79
2022/12/02 09:16:32;;;;;;;24.90;15.50;;;;;;;2.00;100.00;99597.53;5115710;28;20183;-79
2022/12/02 09:19:00;;;;;;;28.57;17.13;;;;;;;1.97;100.00;99602.84;5113007;28;20277;-79
2022/12/02 09:21:29;;;;;;;30.43;19.60;;;;;;;1.95;100.00;99598.53;5115154;28;20240;-79
2022/12/02 09:23:58;;;;;;;33.17;22.47;;;;;;;1.92;100.00;99602.06;5114362;27;20228;-79
2022/12/02 09:26:26;;;;;;;27.80;18.10;;;;;;;2.09;100.00;99606.06;5111248;28;20206;-79
2022/12/02 09:28:54;;;;;;;27.80;17.83;;;;;;;2.20;100.00;99602.31;5113378;28;20226;-79
2022/12/02 09:31:24;;;;;;;25.00;16.93;;;;;;;2.17;100.00;99606.75;5117759;27;20252;-80
2022/12/02 09:33:53;;;;;;;34.47;20.13;;;;;;;2.20;100.00;99604.91;5113229;28;20228;-79
2022/12/02 09:36:21;;;;;;;29.83;19.17;;;;;;;2.13;100.00;99592.91;5109520;28;20245;-80
2022/12/02 09:38:52;;;;;;;26.97;17.43;;;;;;;2.17;100.00;99598.91;5115284;28;20222;-80
2022/12/02 09:41:21;;;;;;;27.43;16.93;;;;;;;2.29;100.00;99596.88;5108368;28;20642;-80
2022/12/02 09:43:49;;;;;;;24.77;15.87;;;;;;;2.26;100.00;99602.16;5114006;27;20207;-79
2022/12/02 09:46:18;;;;;;;25.03;16.27;;;;;;;2.21;100.00;99596.19;5115220;28;20279;-79
2022/12/02 09:48:53;;;;;;;25.90;16.17;;;;;;;2.23;100.00;99601.41;5114075;28;20195;-79
2022/12/02 09:51:22;;;;;;;26.63;17.30;;;;;;;2.15;100.00;99596.34;5112746;28;20187;-79
2022/12/02 09:53:51;;;;;;;25.83;15.60;;;;;;;2.26;100.00;99594.34;5114966;28;20240;-79
2022/12/02 09:56:22;;;;;;;30.43;18.77;;;;;;;2.36;100.00;99592.38;5113301;28;20187;-79
2022/12/02 09:58:55;;;;;;;25.67;16.70;;;;;;;2.23;100.00;99590.94;5113190;28;20266;-79
2022/12/02 10:01:25;;;;;;;24.70;14.83;;;;;;;2.46;100.00;99593.00;5114471;28;20183;-79
2022/12/02 10:03:56;;;;;;;25.37;15.90;;;;;;;2.39;100.00;99591.41;5114665;28;20194;-79
2022/12/02 10:06:25;;;;;;;26.60;15.17;;;;;;;2.36;100.00;99589.75;5114662;28;20295;-81
2022/12/02 10:08:56;;;;;;;30.07;16.33;;;;;;;2.21;100.00;99585.72;5077805;28;20191;-80
2022/12/02 10:11:27;;;;;;;24.47;14.67;;;;;;;2.34;100.00;99588.94;5106647;28;20210;-80
2022/12/02 10:13:58;;;;;;;25.13;15.63;;;;;;;2.40;100.00;99587.91;5114815;28;20198;-80
2022/12/02 10:16:27;;;;;;;25.27;15.43;;;;;;;2.36;100.00;99575.81;5108982;28;20654;-79
2022/12/02 10:19:02;;;;;;;22.87;14.47;;;;;;;2.46;100.00;99578.19;5114354;28;20673;-79
2022/12/02 10:21:31;;;;;;;25.33;16.10;;;;;;;2.40;100.00;99570.47;5110214;28;20242;-79
2022/12/02 10:24:01;;;;;;;21.27;14.20;;;;;;;2.28;100.00;99576.00;5051269;28;20302;-79
2022/12/02 10:26:44;;;;;;;24.30;15.33;;;;;;;2.45;100.00;99578.22;5046953;28;20247;-79
2022/12/02 10:29:20;;;;;;;23.87;14.57;;;;;;;2.52;100.00;99569.34;5051368;28;20544;-78
2022/12/02 10:31:57;;;;;;;25.33;14.50;;;;;;;2.63;100.00;99571.69;5045704;28;20239;-78
2022/12/02 10:34:28;;;;;;;23.90;14.13;;;;;;;2.69;100.00;99571.50;5048251;28;20193;-78
2022/12/02 10:36:57;;;;;;;21.50;13.77;;;;;;;2.63;100.00;99558.59;5051495;28;20239;-79
2022/12/02 10:39:29;;;;;;;23.57;14.43;;;;;;;2.32;100.00;99561.09;5051047;28;20263;-78
2022/12/02 10:42:22;;;;;;;24.47;15.20;;;;;;;2.52;100.00;99562.34;5078270;28;20212;-79
2022/12/02 10:45:19;;;;;;;26.37;16.23;;;;;;;2.60;100.00;99554.28;5112003;28;20203;-79
2022/12/02 10:47:48;;;;;;;21.43;13.90;;;;;;;2.68;100.00;99557.56;5113938;28;20220;-78
2022/12/02 10:50:21;;;;;;;23.27;14.10;;;;;;;2.66;100.00;99562.00;5113810;28;20195;-79
2022/12/02 10:52:52;;;;;;;22.97;15.13;;;;;;;2.73;100.00;99555.72;5113379;28;20240;-79
2022/12/02 10:55:21;;;;;;;23.00;14.43;;;;;;;2.59;100.00;99552.56;5108122;28;20195;-78
2022/12/02 10:57:50;;;;;;;24.03;16.90;;;;;;;2.60;100.00;99546.44;5111908;28;20199;-79
2022/12/02 11:00:21;;;;;;;21.10;14.47;;;;;;;2.72;100.00;99550.53;5113532;28;20219;-78
2022/12/02 11:02:52;;;;;;;22.07;14.60;;;;;;;2.75;100.00;99543.44;5113470;28;20198;-79
2022/12/02 11:05:24;;;;;;;21.07;14.47;;;;;;;2.75;100.00;99534.75;5113265;28;20183;-78
2022/12/02 11:07:54;;;;;;;21.80;13.67;;;;;;;2.73;100.00;99539.16;5113180;28;20251;-79
2022/12/02 11:10:26;;;;;;;23.87;15.23;;;;;;;2.77;100.00;99536.41;5113260;28;20629;-79
2022/12/02 11:13:04;;;;;;;19.77;13.10;;;;;;;2.62;100.00;99536.84;5109172;28;20224;-79
2022/12/02 11:15:42;;;;;;;21.97;14.77;;;;;;;2.70;100.00;99534.00;5065727;28;20246;-79
2022/12/02 11:18:12;;;;;;;19.03;13.30;;;;;;;2.65;100.00;99530.66;5066607;28;20199;-79
2022/12/02 11:20:45;;;;;;;21.13;13.53;;;;;;;2.77;100.00;99530.31;5068103;28;20702;-79
2022/12/02 11:23:19;;;;;;;22.40;14.90;;;;;;;2.82;100.00;99533.69;5070471;28;20246;-78
2022/12/02 11:26:02;;;;;;;22.37;14.23;;;;;;;2.79;100.00;99529.38;5066752;28;20187;-79
2022/12/02 11:29:05;;;;;;;19.47;12.63;;;;;;;2.68;100.00;99522.72;5070250;28;20238;-79
2022/12/02 11:31:34;;;;;;;18.47;12.87;;;;;;;2.80;100.00;99517.19;5070233;28;20253;-79
2022/12/02 11:34:18;;;;;;;20.53;13.37;;;;;;;2.92;100.00;99513.38;5096804;28;20199;-79
2022/12/02 11:37:26;;;;;;;18.23;12.30;;;;;;;2.78;100.00;99511.13;5113192;28;20221;-79
2022/12/02 11:39:55;;;;;;;18.27;12.87;;;;;;;2.78;100.00;99506.75;5112797;28;20245;-79